createdAt,value
2018-09-05T00:03:02.770Z,10.97
2018-09-05T00:08:32.027Z,10.17
2018-09-05T00:14:01.364Z,11.03
2018-09-05T00:19:30.767Z,10.83
2018-09-05T00:25:00.169Z,10.80
2018-09-05T00:30:29.587Z,9.83
2018-09-05T00:35:58.916Z,10.20
2018-09-05T00:41:28.253Z,10.40
2018-09-05T00:46:57.588Z,10.93
2018-09-05T00:52:27.601Z,10.23
2018-09-05T00:57:57.014Z,10.23
2018-09-05T01:03:26.402Z,9.10
2018-09-05T01:08:55.976Z,10.67
2018-09-05T01:14:25.290Z,9.57
2018-09-05T01:19:54.612Z,11.03
2018-09-05T01:25:23.932Z,10.20
2018-09-05T01:30:53.358Z,11.07
2018-09-05T01:36:22.591Z,10.07
2018-09-05T01:41:51.935Z,10.90
2018-09-05T01:47:21.351Z,10.37
2018-09-05T01:52:50.544Z,12.27
2018-09-05T01:58:20.624Z,10.03
2018-09-05T02:03:50.741Z,9.43
2018-09-05T02:09:20.021Z,8.17
2018-09-05T02:14:49.234Z,8.87
2018-09-05T02:20:18.451Z,8.67
2018-09-05T02:25:47.619Z,9.15
2018-09-05T02:31:16.843Z,8.20
2018-09-05T02:36:46.115Z,8.95
2018-09-05T02:42:20.896Z,8.58
2018-09-05T02:47:50.133Z,8.70
2018-09-05T02:53:19.380Z,9.30
2018-09-05T02:58:48.603Z,8.60
2018-09-05T03:04:17.979Z,9.37
2018-09-05T03:09:47.221Z,8.93
2018-09-05T03:15:16.482Z,8.77
2018-09-05T03:20:46.676Z,8.10
2018-09-05T03:26:15.891Z,9.63
2018-09-05T03:31:45.258Z,8.20
2018-09-05T03:37:14.544Z,8.57
2018-09-05T03:42:43.728Z,7.15
2018-09-05T03:48:15.053Z,8.23
2018-09-05T03:53:44.289Z,8.10
2018-09-05T03:59:13.595Z,7.62
2018-09-05T04:04:42.819Z,8.25
2018-09-05T04:10:12.052Z,7.50
2018-09-05T04:15:41.723Z,7.00
2018-09-05T04:21:10.912Z,7.27
2018-09-05T04:26:40.206Z,7.70
2018-09-05T04:32:09.446Z,7.10
2018-09-05T04:37:38.815Z,7.33
2018-09-05T04:43:08.175Z,7.13
2018-09-05T04:48:37.413Z,6.70
2018-09-05T04:54:06.604Z,6.57
2018-09-05T04:59:35.887Z,6.80
2018-09-05T05:05:06.328Z,6.80
2018-09-05T05:10:35.539Z,6.90
2018-09-05T05:16:04.795Z,6.07
2018-09-05T05:21:34.114Z,6.30
2018-09-05T05:27:03.460Z,5.90
2018-09-05T05:32:32.783Z,5.67
2018-09-05T05:38:02.156Z,6.03
2018-09-05T05:43:31.475Z,6.27
2018-09-05T05:49:00.871Z,6.37
2018-09-05T05:54:30.364Z,5.90
2018-09-05T05:59:59.697Z,6.00
2018-09-05T06:05:30.175Z,5.43
2018-09-05T06:10:59.573Z,5.17
2018-09-05T06:16:28.934Z,6.60
2018-09-05T06:21:58.292Z,6.37
2018-09-05T06:27:27.656Z,6.25
2018-09-05T06:32:56.983Z,6.43
2018-09-05T06:38:26.347Z,5.80
2018-09-05T06:43:55.683Z,5.63
2018-09-05T06:49:24.964Z,5.23
2018-09-05T06:54:54.378Z,7.03
2018-09-05T07:00:23.869Z,7.47
2018-09-05T07:05:53.184Z,5.40
2018-09-05T07:11:22.396Z,6.43
2018-09-05T07:16:56.365Z,5.97
2018-09-05T07:22:26.098Z,5.08
2018-09-05T07:27:55.459Z,5.60
2018-09-05T07:33:24.792Z,4.93
2018-09-05T07:38:54.244Z,5.30
2018-09-05T07:44:23.507Z,4.87
2018-09-05T07:49:52.912Z,4.47
2018-09-05T07:55:23.308Z,4.17
2018-09-05T08:00:52.519Z,4.70
2018-09-05T08:06:21.942Z,3.97
2018-09-05T08:11:51.225Z,4.40
2018-09-05T08:17:20.512Z,5.60
2018-09-05T08:22:49.787Z,4.87
2018-09-05T08:28:19.119Z,5.73
2018-09-05T08:33:48.538Z,5.33
2018-09-05T08:39:17.843Z,6.17
2018-09-05T08:44:47.844Z,5.83
2018-09-05T08:50:16.847Z,6.23
2018-09-05T08:55:47.252Z,6.00
2018-09-05T09:01:16.731Z,6.83
2018-09-05T09:06:45.991Z,8.20
2018-09-05T09:12:15.498Z,7.20
2018-09-05T09:17:45.156Z,7.60
2018-09-05T09:23:14.434Z,7.37
2018-09-05T09:28:43.748Z,7.13
2018-09-05T09:34:13.053Z,8.30
2018-09-05T09:39:42.380Z,8.10
2018-09-05T09:45:12.080Z,8.07
2018-09-05T09:50:41.908Z,9.10
2018-09-05T09:56:13.444Z,8.40
2018-09-05T10:01:47.977Z,9.47
2018-09-05T10:07:22.568Z,8.48
2018-09-05T10:13:00.883Z,8.40
2018-09-05T10:18:32.410Z,8.87
2018-09-05T10:24:01.925Z,8.47
2018-09-05T10:29:31.768Z,8.77
2018-09-05T10:35:01.302Z,8.85
2018-09-05T10:40:31.636Z,8.00
2018-09-05T10:46:02.216Z,10.17
2018-09-05T10:51:36.975Z,10.60
2018-09-05T10:57:06.397Z,9.80
2018-09-05T11:02:35.651Z,11.00
2018-09-05T11:08:05.007Z,10.20
2018-09-05T11:13:35.542Z,10.83
2018-09-05T11:19:13.110Z,10.23
2018-09-05T11:24:43.415Z,10.98
2018-09-05T11:30:12.636Z,10.13
2018-09-05T11:35:44.097Z,11.00
2018-09-05T11:41:13.337Z,11.80
2018-09-05T11:46:42.725Z,12.70
2018-09-05T11:52:14.262Z,11.50
2018-09-05T11:57:44.796Z,11.53
2018-09-05T12:03:14.000Z,11.95
2018-09-05T12:08:43.405Z,13.47
2018-09-05T12:14:12.645Z,12.27
2018-09-05T12:19:41.898Z,12.37
2018-09-05T12:25:11.487Z,11.40
2018-09-05T12:30:40.842Z,12.88
2018-09-05T12:36:10.218Z,13.13
2018-09-05T12:41:39.607Z,12.10
2018-09-05T12:47:14.387Z,13.87
2018-09-05T12:52:43.681Z,13.15
2018-09-05T12:58:12.903Z,14.67
2018-09-05T13:03:42.139Z,14.25
2018-09-05T13:09:13.165Z,15.93
2018-09-05T13:14:43.169Z,15.32
2018-09-05T13:20:13.852Z,13.73
2018-09-05T13:25:44.255Z,15.87
2018-09-05T13:31:13.665Z,14.20
2018-09-05T13:36:43.589Z,15.67
2018-09-05T13:42:14.068Z,14.73
2018-09-05T13:47:43.527Z,13.50
2018-09-05T13:53:13.772Z,14.40
2018-09-05T13:58:43.164Z,14.18
2018-09-05T14:04:12.467Z,13.62
2018-09-05T14:09:41.764Z,13.43
2018-09-05T14:15:11.199Z,14.50
2018-09-05T14:20:40.558Z,13.93
2018-09-05T14:26:12.190Z,13.33
2018-09-05T14:31:41.633Z,12.80
2018-09-05T14:37:12.033Z,13.77
2018-09-05T14:42:41.500Z,13.28
2018-09-05T14:48:11.003Z,13.28
2018-09-05T14:53:40.368Z,13.50
2018-09-05T14:59:10.705Z,13.62
2018-09-05T15:04:41.771Z,14.40
2018-09-05T15:10:11.301Z,14.83
2018-09-05T15:15:41.604Z,16.37
2018-09-05T15:21:12.974Z,18.47
2018-09-05T15:26:42.299Z,16.90
2018-09-05T15:32:11.587Z,16.77
2018-09-05T15:37:40.856Z,16.12
2018-09-05T15:43:10.296Z,15.97
2018-09-05T15:48:39.543Z,20.27
2018-09-05T15:54:08.836Z,19.73
2018-09-05T15:59:38.437Z,17.23
2018-09-05T16:05:07.949Z,19.40
2018-09-05T16:10:37.805Z,18.37
2018-09-05T16:16:09.107Z,19.17
2018-09-05T16:21:38.529Z,21.52
2018-09-05T16:27:08.154Z,20.40
2018-09-05T16:32:37.903Z,19.12
2018-09-05T16:38:07.505Z,19.30
2018-09-05T16:43:36.928Z,19.80
2018-09-05T16:49:06.421Z,22.50
2018-09-05T16:54:35.657Z,21.50
2018-09-05T17:00:05.263Z,20.12
2018-09-05T17:05:35.532Z,20.00
2018-09-05T17:11:04.942Z,21.10
2018-09-05T17:16:35.448Z,23.83
2018-09-05T17:22:05.180Z,22.73
2018-09-05T17:27:34.507Z,22.93
2018-09-05T17:33:04.241Z,23.42
2018-09-05T17:38:37.372Z,23.12
2018-09-05T17:44:07.659Z,23.10
2018-09-05T17:49:37.180Z,23.80
2018-09-05T17:55:07.096Z,22.50
2018-09-05T18:00:36.463Z,22.50
2018-09-05T18:06:09.699Z,24.13
2018-09-05T18:11:53.416Z,26.20
2018-09-05T18:17:23.686Z,27.80
2018-09-05T18:22:53.127Z,33.10
2018-09-05T18:28:28.132Z,26.50
2018-09-05T18:33:57.632Z,26.10
2018-09-05T18:39:27.510Z,26.03
2018-09-05T18:44:58.252Z,26.87
2018-09-05T18:50:27.667Z,28.43
2018-09-05T18:55:57.151Z,29.23
2018-09-05T19:01:26.680Z,28.37
2018-09-05T19:06:57.082Z,28.53
2018-09-05T19:12:26.745Z,27.90
2018-09-05T19:17:56.391Z,29.60
2018-09-05T19:23:25.876Z,28.40
2018-09-05T19:28:55.415Z,30.27
2018-09-05T19:34:24.829Z,29.97
2018-09-05T19:39:54.903Z,29.33
2018-09-05T19:45:24.252Z,30.27
2018-09-05T19:50:57.393Z,33.50
2018-09-05T19:56:26.918Z,34.87
2018-09-05T20:01:56.316Z,36.80
2018-09-05T20:07:25.784Z,37.97
2018-09-05T20:12:58.811Z,34.92
2018-09-05T20:18:28.481Z,37.47
2018-09-05T20:23:57.976Z,36.90
2018-09-05T20:29:27.493Z,38.60
2018-09-05T20:34:56.927Z,35.23
2018-09-05T20:40:26.407Z,35.30
2018-09-05T20:45:58.792Z,35.00
2018-09-05T20:51:28.790Z,33.03
2018-09-05T20:56:58.556Z,32.13
2018-09-05T21:02:28.068Z,30.10
2018-09-05T21:08:00.024Z,29.70
2018-09-05T21:13:30.544Z,31.30
2018-09-05T21:18:59.855Z,31.20
2018-09-05T21:24:29.178Z,28.87
2018-09-05T21:29:59.254Z,29.43
2018-09-05T21:35:29.802Z,30.93
2018-09-05T21:40:59.312Z,31.00
2018-09-05T21:46:28.796Z,32.20
2018-09-05T21:51:58.113Z,30.92
2018-09-05T21:57:27.474Z,32.10
2018-09-05T22:02:57.635Z,33.02
2018-09-05T22:08:27.028Z,32.40
2018-09-05T22:13:56.928Z,30.60
2018-09-05T22:19:26.408Z,32.00
2018-09-05T22:24:55.730Z,30.48
2018-09-05T22:30:28.801Z,28.95
2018-09-05T22:35:58.169Z,30.50
2018-09-05T22:41:27.565Z,29.67
2018-09-05T22:47:13.705Z,28.33
2018-09-05T22:55:40.754Z,29.80
2018-09-05T23:01:48.484Z,28.17
2018-09-05T23:09:47.993Z,27.10
2018-09-05T23:15:34.108Z,25.63
2018-09-05T23:21:21.622Z,26.93
2018-09-05T23:26:50.887Z,27.10
2018-09-05T23:32:20.128Z,24.80
2018-09-05T23:37:51.156Z,25.12
2018-09-05T23:43:20.608Z,25.10
2018-09-05T23:48:49.884Z,24.80
2018-09-05T23:54:19.249Z,22.83
2018-09-05T23:59:52.710Z,23.50
